Time;durP1;ratioP1;P1;durP2;ratioP2;P2;SDS_P1;SDS_P2;PMS_P1;PMS_P2;Temp;Humidity;BMP_temperature;BMP_pressure;BME280_temperature;BME280_humidity;BME280_pressure;Samples;Min_cycle;Max_cycle;Signal;HPM_P1;HPM_P2
2021/12/05 00:23:32;;;;;;;22.17;15.30;;;6.40;91.10;;;;;;4951106;28;20663;-70
2021/12/05 00:26:02;;;;;;;21.07;16.30;;;6.40;91.10;;;;;;4955209;28;20699;-70
2021/12/05 00:33:59;;;;;;;20.30;15.17;;;6.40;91.20;;;;;;4956315;28;20300;-70
2021/12/05 01:14:03;;;;;;;22.17;15.83;;;6.70;90.80;;;;;;4956503;28;20237;-69
2021/12/05 01:16:31;;;;;;;22.43;16.00;;;6.70;90.70;;;;;;4952851;29;20234;-69
2021/12/05 01:19:03;;;;;;;20.87;14.93;;;6.70;90.80;;;;;;4956493;29;20223;-69
2021/12/05 01:21:32;;;;;;;20.43;15.97;;;6.70;90.80;;;;;;4955723;29;20248;-69
2021/12/05 01:24:10;;;;;;;19.53;15.23;;;6.80;90.80;;;;;;4964890;28;20665;-70
2021/12/05 01:32:02;;;;;;;22.00;16.57;;;6.80;90.80;;;;;;4956577;28;20215;-70
2021/12/05 02:39:40;;;;;;;30.20;19.47;;;6.80;91.40;;;;;;4985478;28;20563;-70
2021/12/05 02:42:15;;;;;;;26.33;20.07;;;6.80;91.50;;;;;;4944258;28;20609;-70
2021/12/05 02:44:44;;;;;;;27.57;20.27;;;6.80;91.50;;;;;;4950340;29;20362;-70
2021/12/05 02:47:18;;;;;;;34.83;20.83;;;6.80;91.50;;;;;;4952804;28;20211;-70
2021/12/05 02:49:49;;;;;;;25.67;19.30;;;6.80;91.50;;;;;;4953799;28;20275;-70
2021/12/05 02:52:29;;;;;;;28.13;20.23;;;6.80;91.50;;;;;;4952365;29;20227;-70
2021/12/05 02:55:09;;;;;;;24.73;19.57;;;6.80;91.50;;;;;;4969488;28;20221;-69
2021/12/05 03:03:19;;;;;;;23.87;19.57;;;6.80;91.50;;;;;;4941629;29;20806;-69
2021/12/05 03:05:57;;;;;;;27.77;19.23;;;6.80;91.50;;;;;;4953622;28;20688;-69
2021/12/05 03:08:24;;;;;;;28.43;18.83;;;6.80;91.60;;;;;;4954609;29;20311;-69
2021/12/05 03:10:55;;;;;;;31.80;19.30;;;6.80;91.50;;;;;;4943001;28;20217;-69
2021/12/05 03:13:22;;;;;;;34.30;20.30;;;6.90;91.60;;;;;;4958803;28;20648;-69
2021/12/05 03:15:51;;;;;;;27.10;20.40;;;6.80;91.60;;;;;;4962766;28;20269;-69
2021/12/05 03:18:18;;;;;;;26.00;18.67;;;6.80;91.60;;;;;;4951071;29;20202;-69
2021/12/05 03:20:46;;;;;;;27.50;20.07;;;6.90;91.60;;;;;;4951415;29;20214;-69
2021/12/05 03:23:13;;;;;;;25.47;19.77;;;6.90;91.70;;;;;;4946045;28;20209;-69
2021/12/05 03:25:41;;;;;;;28.73;21.10;;;6.90;91.70;;;;;;4960785;28;20514;-69
2021/12/05 03:28:10;;;;;;;28.80;20.50;;;6.90;91.70;;;;;;4960102;28;20215;-69
2021/12/05 03:30:38;;;;;;;30.30;20.93;;;6.80;91.70;;;;;;4950053;29;20752;-70
2021/12/05 03:33:06;;;;;;;29.57;21.63;;;6.80;91.70;;;;;;4951411;29;20214;-70
2021/12/05 03:35:34;;;;;;;26.53;20.23;;;6.80;91.80;;;;;;4962231;28;20317;-70
2021/12/05 03:38:05;;;;;;;30.77;21.00;;;6.80;91.80;;;;;;4952989;29;20275;-70
2021/12/05 03:40:35;;;;;;;30.60;21.47;;;6.80;91.90;;;;;;4953186;29;20548;-70
2021/12/05 03:43:08;;;;;;;30.40;21.50;;;6.80;91.90;;;;;;4953643;29;20235;-69
2021/12/05 03:45:41;;;;;;;29.93;21.13;;;6.80;92.00;;;;;;4966387;28;20216;-69
2021/12/05 03:48:12;;;;;;;28.93;20.87;;;6.80;92.00;;;;;;4969225;28;20216;-69
2021/12/05 03:50:42;;;;;;;28.77;22.17;;;6.80;92.00;;;;;;4952025;29;20219;-69
2021/12/05 03:53:11;;;;;;;31.07;22.60;;;6.80;92.30;;;;;;4953450;28;20217;-69
2021/12/05 03:55:41;;;;;;;33.77;22.97;;;6.80;92.00;;;;;;4953114;28;20237;-69
2021/12/05 03:58:09;;;;;;;31.87;22.90;;;6.80;92.10;;;;;;4968776;28;20228;-70
2021/12/05 04:00:39;;;;;;;31.23;22.60;;;6.80;92.10;;;;;;4956680;29;20219;-70
2021/12/05 04:03:10;;;;;;;34.03;23.93;;;6.80;92.20;;;;;;4951800;29;20606;-70
2021/12/05 04:05:40;;;;;;;31.97;23.60;;;6.80;92.20;;;;;;4963977;28;20554;-70
2021/12/05 04:08:11;;;;;;;32.67;22.67;;;6.80;92.20;;;;;;4969722;28;20223;-70
2021/12/05 04:10:43;;;;;;;34.13;22.80;;;6.80;92.20;;;;;;4957135;29;20244;-70
2021/12/05 04:13:12;;;;;;;30.17;22.60;;;6.80;92.10;;;;;;4970778;28;20243;-70
2021/12/05 04:15:40;;;;;;;33.70;23.60;;;6.80;92.10;;;;;;4956100;29;20236;-70
2021/12/05 04:18:07;;;;;;;32.33;23.37;;;6.80;92.10;;;;;;4965371;28;20220;-70
2021/12/05 04:20:35;;;;;;;32.97;24.40;;;6.80;92.10;;;;;;4953975;28;20277;-70
2021/12/05 04:23:04;;;;;;;29.77;23.27;;;6.80;92.10;;;;;;4966798;28;20241;-70
2021/12/05 04:25:37;;;;;;;31.90;22.20;;;6.80;92.00;;;;;;4956966;28;20773;-70
2021/12/05 04:28:12;;;;;;;31.90;23.67;;;6.80;92.00;;;;;;4968178;28;20205;-70
2021/12/05 04:30:40;;;;;;;34.67;23.10;;;6.80;92.00;;;;;;4952487;29;20224;-70
2021/12/05 04:33:07;;;;;;;31.03;22.63;;;6.80;92.00;;;;;;4972762;28;20649;-70
2021/12/05 04:35:38;;;;;;;31.40;22.70;;;6.70;91.90;;;;;;4962130;28;20213;-70
2021/12/05 04:38:06;;;;;;;33.90;24.03;;;6.70;91.90;;;;;;4954099;29;20213;-70
2021/12/05 04:40:33;;;;;;;28.97;21.60;;;6.70;92.00;;;;;;4947087;29;20934;-70
2021/12/05 04:43:05;;;;;;;31.27;22.60;;;6.70;92.00;;;;;;4945231;28;20214;-70
2021/12/05 04:45:36;;;;;;;29.90;22.67;;;6.70;92.00;;;;;;4952648;28;20212;-70
2021/12/05 04:48:06;;;;;;;31.17;22.50;;;6.70;92.00;;;;;;4956352;28;20220;-70
2021/12/05 04:50:34;;;;;;;35.37;24.77;;;6.70;92.00;;;;;;4955431;29;20704;-70
2021/12/05 04:53:03;;;;;;;34.40;22.63;;;6.70;91.90;;;;;;4956717;28;20589;-70
2021/12/05 04:55:31;;;;;;;33.27;22.57;;;6.70;91.90;;;;;;4955819;29;20201;-70
2021/12/05 04:58:02;;;;;;;31.67;22.40;;;6.70;91.90;;;;;;4956569;29;20602;-70
2021/12/05 05:00:41;;;;;;;30.90;22.37;;;6.70;91.90;;;;;;4955952;29;20217;-70
2021/12/05 05:03:09;;;;;;;31.50;23.83;;;6.70;91.90;;;;;;4956833;28;20208;-70
2021/12/05 05:05:42;;;;;;;33.87;22.97;;;6.70;91.90;;;;;;4955479;29;20242;-70
2021/12/05 05:08:10;;;;;;;27.70;22.53;;;6.70;91.90;;;;;;4964112;28;20301;-70
2021/12/05 05:10:37;;;;;;;28.57;21.93;;;6.70;91.90;;;;;;4955936;28;20225;-70
2021/12/05 05:13:05;;;;;;;31.50;20.87;;;6.70;91.90;;;;;;4956216;29;20244;-70
2021/12/05 05:15:32;;;;;;;29.80;22.57;;;6.70;91.90;;;;;;4956843;28;20239;-70
2021/12/05 05:18:01;;;;;;;33.77;23.03;;;6.60;91.90;;;;;;4956227;28;20314;-70
2021/12/05 05:20:38;;;;;;;28.57;20.70;;;6.60;91.90;;;;;;4953619;29;20222;-70
2021/12/05 05:23:27;;;;;;;29.67;21.30;;;6.60;91.90;;;;;;4952615;28;20264;-70
2021/12/05 05:28:55;;;;;;;30.77;23.47;;;6.60;91.90;;;;;;4952676;28;20551;-70
2021/12/05 05:40:02;;;;;;;35.27;24.60;;;6.60;92.10;;;;;;4955633;29;20289;-70
2021/12/05 05:50:21;;;;;;;32.23;24.67;;;6.50;92.10;;;;;;4955734;28;20300;-70
2021/12/05 05:52:48;;;;;;;35.73;25.10;;;6.50;92.20;;;;;;4953229;29;20283;-70
2021/12/05 05:55:16;;;;;;;34.97;25.67;;;6.50;92.20;;;;;;4955210;28;20247;-70
2021/12/05 06:00:29;;;;;;;31.80;23.93;;;6.50;92.20;;;;;;4950951;29;20203;-69
2021/12/05 06:05:44;;;;;;;37.20;26.20;;;6.50;92.30;;;;;;4969173;28;20286;-69
2021/12/05 06:08:11;;;;;;;38.03;25.77;;;6.50;92.30;;;;;;4955234;29;20716;-69
2021/12/05 06:10:39;;;;;;;34.87;25.20;;;6.50;92.40;;;;;;4955618;28;20724;-69
2021/12/05 06:13:07;;;;;;;35.03;25.83;;;6.40;92.40;;;;;;4954476;29;20205;-69
2021/12/05 06:15:34;;;;;;;34.77;24.47;;;6.40;92.50;;;;;;4952838;29;20260;-69
2021/12/05 06:18:02;;;;;;;34.47;24.03;;;6.40;92.50;;;;;;4955026;28;20311;-69
2021/12/05 06:20:31;;;;;;;33.63;23.33;;;6.40;92.50;;;;;;4955796;28;20570;-69
2021/12/05 06:23:00;;;;;;;30.87;24.47;;;6.40;92.50;;;;;;4953273;28;20255;-69
2021/12/05 06:25:30;;;;;;;31.77;24.37;;;6.40;92.60;;;;;;4949855;29;20307;-69
2021/12/05 06:28:02;;;;;;;36.50;24.53;;;6.40;92.60;;;;;;4953312;29;20273;-69
2021/12/05 06:30:56;;;;;;;31.33;24.00;;;6.40;92.60;;;;;;4955735;28;20705;-69
2021/12/05 06:41:58;;;;;;;29.87;22.57;;;6.40;92.70;;;;;;4952424;29;20642;-69
2021/12/05 06:47:13;;;;;;;31.30;22.10;;;6.40;92.70;;;;;;4960363;28;20227;-69
2021/12/05 06:49:42;;;;;;;28.93;22.67;;;6.40;92.60;;;;;;4953841;28;20287;-69
2021/12/05 06:52:30;;;;;;;32.77;23.07;;;6.40;92.70;;;;;;4953485;29;20224;-69
2021/12/05 06:54:58;;;;;;;31.00;23.27;;;6.40;92.70;;;;;;4954420;29;20597;-70
2021/12/05 06:57:25;;;;;;;35.53;23.73;;;6.30;92.70;;;;;;4952765;29;20228;-70
2021/12/05 06:59:53;;;;;;;32.90;23.00;;;6.30;92.80;;;;;;4954396;28;20224;-70
2021/12/05 07:02:20;;;;;;;30.87;22.43;;;6.40;92.80;;;;;;4954016;28;20195;-70
2021/12/05 07:07:25;;;;;;;29.17;21.77;;;6.40;92.90;;;;;;4953549;29;20271;-70
2021/12/05 07:09:53;;;;;;;30.67;22.80;;;6.40;92.90;;;;;;4951764;29;20589;-70
2021/12/05 07:15:29;;;;;;;32.07;21.17;;;6.30;92.80;;;;;;4954143;29;20646;-69
2021/12/05 07:26:10;;;;;;;33.20;21.87;;;6.40;92.90;;;;;;4953497;29;20276;-70
2021/12/05 07:42:33;;;;;;;36.77;23.40;;;6.40;92.90;;;;;;4950112;29;20214;-69
2021/12/05 07:45:04;;;;;;;34.40;24.37;;;6.40;92.80;;;;;;4955036;29;20684;-69
2021/12/05 07:47:33;;;;;;;28.70;22.13;;;6.50;92.80;;;;;;4956963;28;20231;-69
2021/12/05 07:50:07;;;;;;;30.20;20.90;;;6.40;92.70;;;;;;4957421;29;20220;-69
2021/12/05 07:52:38;;;;;;;28.60;21.43;;;6.40;92.70;;;;;;4956753;29;20244;-69
2021/12/05 07:55:35;;;;;;;29.97;20.83;;;6.30;92.70;;;;;;4956278;28;20291;-69
2021/12/05 08:14:47;;;;;;;27.47;20.97;;;6.00;93.00;;;;;;4957338;29;20216;-69
2021/12/05 08:17:16;;;;;;;27.03;18.93;;;5.90;93.00;;;;;;4957542;29;20623;-69
2021/12/05 08:19:45;;;;;;;26.60;19.60;;;5.90;93.00;;;;;;4957206;29;20314;-69
2021/12/05 08:22:13;;;;;;;26.73;18.50;;;5.90;93.00;;;;;;4955860;29;20249;-69
2021/12/05 08:24:42;;;;;;;27.77;20.00;;;5.90;93.00;;;;;;4958460;28;20211;-69
2021/12/05 08:27:13;;;;;;;26.53;19.93;;;5.90;93.30;;;;;;4954320;29;20517;-69
2021/12/05 08:29:49;;;;;;;32.67;21.00;;;5.90;93.00;;;;;;4958009;29;20224;-69
2021/12/05 08:32:30;;;;;;;30.70;21.97;;;5.90;93.00;;;;;;4956780;28;20234;-69
2021/12/05 08:35:38;;;;;;;26.43;19.67;;;5.90;93.00;;;;;;4959369;28;20647;-69
2021/12/05 10:37:05;;;;;;;65.53;42.17;;;8.10;86.10;;;;;;4952877;29;20241;-69
2021/12/05 10:39:32;;;;;;;66.57;44.03;;;8.10;87.80;;;;;;4954086;29;20733;-69
2021/12/05 10:42:34;;;;;;;65.73;43.60;;;8.00;87.80;;;;;;4954492;29;20245;-69
2021/12/05 10:44:50;;;;;;;69.37;43.60;;;8.00;89.00;;;;;;4956166;28;20271;-69
2021/12/05 10:47:36;;;;;;;60.50;42.03;;;8.00;89.60;;;;;;4955236;28;20201;-69
2021/12/05 10:50:41;;;;;;;69.03;43.80;;;8.10;88.80;;;;;;4970067;28;20216;-69
2021/12/05 10:53:32;;;;;;;67.30;43.17;;;8.20;88.60;;;;;;4953498;29;20236;-69
2021/12/05 10:56:20;;;;;;;64.20;43.07;;;8.30;88.40;;;;;;4967374;28;20623;-69
2021/12/05 10:58:59;;;;;;;66.50;43.07;;;8.40;89.20;;;;;;4955420;28;20271;-69
2021/12/05 11:01:32;;;;;;;61.67;41.33;;;8.50;89.30;;;;;;4966358;28;20287;-69
2021/12/05 11:04:20;;;;;;;64.33;42.40;;;8.60;88.80;;;;;;4959508;28;20216;-69
2021/12/05 11:06:54;;;;;;;63.07;42.67;;;8.70;88.60;;;;;;4966113;28;20661;-69
2021/12/05 11:09:33;;;;;;;57.87;41.70;;;8.80;88.60;;;;;;4952477;29;20213;-69
2021/12/05 11:12:10;;;;;;;62.60;41.03;;;8.80;88.10;;;;;;4954177;29;20211;-69
2021/12/05 11:14:46;;;;;;;59.63;40.63;;;8.90;87.90;;;;;;4955378;28;20213;-69
2021/12/05 11:17:21;;;;;;;55.93;38.57;;;9.00;85.40;;;;;;4954795;28;20223;-69
2021/12/05 11:19:58;;;;;;;58.60;39.93;;;8.90;85.20;;;;;;4951653;29;20220;-69
2021/12/05 11:22:29;;;;;;;58.70;38.60;;;8.90;85.40;;;;;;4953753;29;20257;-70
2021/12/05 11:25:13;;;;;;;53.27;35.93;;;8.90;86.40;;;;;;4955396;28;20300;-70
2021/12/05 11:27:42;;;;;;;50.63;35.50;;;9.00;87.20;;;;;;4954222;29;20288;-69
2021/12/05 11:30:10;;;;;;;48.43;36.17;;;9.10;86.80;;;;;;4951848;29;20305;-69
2021/12/05 11:33:00;;;;;;;47.97;35.77;;;9.20;86.50;;;;;;4951314;29;20252;-69
2021/12/05 11:35:38;;;;;;;51.90;34.43;;;9.30;86.60;;;;;;4966843;28;20220;-69
2021/12/05 11:38:33;;;;;;;45.03;34.27;;;9.40;86.00;;;;;;4951663;28;20245;-69
2021/12/05 11:41:06;;;;;;;53.20;35.90;;;9.50;85.60;;;;;;4945902;29;20213;-69
2021/12/05 11:43:39;;;;;;;44.00;30.63;;;9.60;85.50;;;;;;4953295;29;20206;-69
2021/12/05 11:46:32;;;;;;;40.60;32.23;;;9.70;82.90;;;;;;4953863;29;20245;-69
2021/12/05 11:49:02;;;;;;;44.33;32.17;;;9.70;81.80;;;;;;4955032;28;20257;-69
2021/12/05 11:51:44;;;;;;;45.30;31.10;;;9.70;82.50;;;;;;4953748;29;20293;-69
2021/12/05 11:54:33;;;;;;;42.93;31.00;;;9.60;82.90;;;;;;4967254;28;20288;-69
2021/12/05 11:57:27;;;;;;;41.97;31.17;;;9.60;82.80;;;;;;4953511;29;20590;-69
2021/12/05 12:00:14;;;;;;;41.70;31.03;;;9.60;83.70;;;;;;4952184;29;20213;-69
2021/12/05 12:02:44;;;;;;;41.80;30.93;;;9.70;83.80;;;;;;4934423;29;20210;-69
2021/12/05 12:05:35;;;;;;;43.37;30.47;;;9.80;83.80;;;;;;4953366;29;20262;-69
2021/12/05 12:08:10;;;;;;;36.87;29.33;;;9.90;83.00;;;;;;4949890;29;20224;-69
2021/12/05 12:10:44;;;;;;;40.87;30.57;;;9.90;83.00;;;;;;4953997;29;20543;-69
2021/12/05 12:13:18;;;;;;;36.03;30.07;;;10.00;82.40;;;;;;4964632;28;20244;-69
2021/12/05 12:15:58;;;;;;;40.07;28.47;;;10.10;82.20;;;;;;4952904;29;20247;-69
2021/12/05 12:18:32;;;;;;;36.63;28.33;;;10.10;82.50;;;;;;4934426;29;20614;-69
2021/12/05 12:21:04;;;;;;;35.73;29.20;;;10.20;81.80;;;;;;4956171;28;20213;-69
2021/12/05 12:23:32;;;;;;;35.60;26.07;;;10.30;81.20;;;;;;4972211;28;20300;-69
2021/12/05 12:26:04;;;;;;;32.33;25.03;;;10.30;80.60;;;;;;4956983;29;20242;-69
2021/12/05 12:28:32;;;;;;;34.17;24.20;;;10.30;78.90;;;;;;4966025;28;20218;-69
2021/12/05 12:31:25;;;;;;;35.43;25.93;;;10.30;78.00;;;;;;4957798;28;20509;-69
2021/12/05 12:33:56;;;;;;;34.67;26.30;;;10.30;78.40;;;;;;4965314;28;20206;-70
2021/12/05 12:36:38;;;;;;;35.40;27.47;;;10.30;77.90;;;;;;4956949;29;20202;-70
2021/12/05 12:39:27;;;;;;;37.23;26.13;;;10.30;78.50;;;;;;4971492;28;20721;-70
2021/12/05 12:42:03;;;;;;;32.13;24.10;;;10.30;77.60;;;;;;4966022;28;20268;-70
2021/12/05 12:44:31;;;;;;;32.47;25.63;;;10.20;76.20;;;;;;4972927;28;20210;-70
2021/12/05 12:47:02;;;;;;;31.83;23.33;;;10.10;77.40;;;;;;4957473;28;20207;-70
2021/12/05 12:49:37;;;;;;;32.10;24.23;;;10.10;76.20;;;;;;4971021;28;20621;-70
2021/12/05 12:52:15;;;;;;;32.83;25.40;;;10.00;77.20;;;;;;4953106;29;20218;-70
2021/12/05 12:54:48;;;;;;;31.37;23.83;;;10.10;77.90;;;;;;4945343;29;20325;-70
2021/12/05 12:57:33;;;;;;;29.87;23.60;;;10.10;77.20;;;;;;4957020;28;20194;-70
2021/12/05 13:00:06;;;;;;;28.63;21.57;;;10.20;77.70;;;;;;4953767;29;20202;-70
2021/12/05 13:11:23;;;;;;;28.70;21.03;;;10.40;75.40;;;;;;4956385;29;20585;-70
2021/12/05 13:14:04;;;;;;;30.33;21.20;;;10.40;74.10;;;;;;4957347;28;20236;-70
2021/12/05 13:16:36;;;;;;;29.67;20.57;;;10.50;74.80;;;;;;4954593;29;20205;-70
2021/12/05 13:19:12;;;;;;;24.60;18.07;;;10.40;71.70;;;;;;4954501;29;20256;-70
2021/12/05 13:21:45;;;;;;;27.63;19.43;;;10.40;72.30;;;;;;4956232;29;20313;-70
2021/12/05 13:24:33;;;;;;;29.03;19.87;;;10.40;71.20;;;;;;4956338;29;20198;-70
2021/12/05 13:27:09;;;;;;;26.87;20.23;;;10.30;71.60;;;;;;4955296;29;20213;-70
2021/12/05 13:29:49;;;;;;;26.17;19.30;;;10.30;71.80;;;;;;4970775;28;20662;-70
2021/12/05 13:32:22;;;;;;;25.43;18.70;;;10.30;70.90;;;;;;4966731;28;20252;-70
2021/12/05 13:34:55;;;;;;;26.13;19.67;;;10.30;70.70;;;;;;4956833;28;20218;-70
2021/12/05 13:37:35;;;;;;;26.87;20.43;;;10.20;70.70;;;;;;4954546;29;20281;-70
2021/12/05 13:40:08;;;;;;;27.17;19.70;;;10.20;70.70;;;;;;4955797;29;20229;-70
2021/12/05 13:42:41;;;;;;;32.83;21.23;;;10.20;70.50;;;;;;4956598;28;20646;-70
2021/12/05 13:45:09;;;;;;;25.97;19.93;;;10.20;70.90;;;;;;4956716;28;20197;-70
2021/12/05 13:47:47;;;;;;;26.70;21.00;;;10.10;70.00;;;;;;4956764;28;20210;-70
2021/12/05 13:50:29;;;;;;;29.30;20.93;;;10.10;69.60;;;;;;4952849;29;20235;-70
2021/12/05 13:53:03;;;;;;;30.20;21.37;;;10.10;70.50;;;;;;4970166;28;20214;-70
2021/12/05 13:55:39;;;;;;;28.43;21.57;;;10.10;71.40;;;;;;4952873;28;20622;-70
2021/12/05 13:58:19;;;;;;;31.57;22.60;;;10.00;70.90;;;;;;4964601;28;20280;-70
2021/12/05 14:01:00;;;;;;;29.67;21.87;;;10.00;71.50;;;;;;4952840;29;20646;-70
2021/12/05 14:03:53;;;;;;;30.90;22.53;;;10.00;72.20;;;;;;4956724;28;20289;-70
2021/12/05 14:06:27;;;;;;;25.03;19.53;;;10.00;72.70;;;;;;4960968;28;20198;-70
2021/12/05 14:09:02;;;;;;;26.93;20.00;;;10.00;72.60;;;;;;4969914;28;20221;-70
2021/12/05 14:11:30;;;;;;;23.20;18.87;;;10.00;72.00;;;;;;4954585;29;20206;-70
2021/12/05 14:13:58;;;;;;;24.23;18.67;;;9.90;71.60;;;;;;4955245;29;20238;-70
2021/12/05 14:16:38;;;;;;;25.93;19.23;;;9.90;71.30;;;;;;4952360;29;20207;-70
2021/12/05 14:19:11;;;;;;;26.73;20.20;;;9.90;70.00;;;;;;4955120;29;20292;-70
2021/12/05 14:21:41;;;;;;;26.03;20.17;;;9.80;70.10;;;;;;4955493;28;20222;-70
2021/12/05 14:24:12;;;;;;;26.07;19.73;;;9.80;70.20;;;;;;4949998;28;20218;-70
2021/12/05 14:26:41;;;;;;;27.60;18.90;;;9.80;70.70;;;;;;4953709;29;20213;-70
2021/12/05 14:29:13;;;;;;;25.17;19.53;;;9.80;71.20;;;;;;4969442;28;20225;-70
2021/12/05 14:31:49;;;;;;;28.90;20.13;;;9.70;71.40;;;;;;4953522;29;20215;-70
2021/12/05 14:34:18;;;;;;;25.97;20.30;;;9.70;71.50;;;;;;4953907;29;20209;-70
2021/12/05 14:37:02;;;;;;;26.63;19.23;;;9.70;71.50;;;;;;4952322;28;20638;-70
2021/12/05 14:39:40;;;;;;;28.37;20.00;;;9.60;70.50;;;;;;4954873;29;20214;-70
2021/12/05 14:42:22;;;;;;;27.23;20.97;;;9.60;70.60;;;;;;4955200;28;20288;-70
2021/12/05 14:44:57;;;;;;;25.93;19.93;;;9.60;69.80;;;;;;4954786;29;20303;-70
2021/12/05 14:47:28;;;;;;;26.37;20.80;;;9.50;69.30;;;;;;4967440;28;20209;-70
2021/12/05 14:50:00;;;;;;;27.97;20.20;;;9.50;69.70;;;;;;4956449;29;20206;-70
2021/12/05 14:52:31;;;;;;;26.63;19.57;;;9.40;69.40;;;;;;4948377;29;20722;-70
2021/12/05 14:55:01;;;;;;;26.67;19.50;;;9.40;69.40;;;;;;4952164;28;20245;-70
2021/12/05 14:57:38;;;;;;;28.63;21.13;;;9.30;70.30;;;;;;4953851;29;20635;-70
2021/12/05 15:00:11;;;;;;;28.97;20.83;;;9.20;71.20;;;;;;4950624;29;20312;-70
2021/12/05 15:02:40;;;;;;;26.03;20.77;;;9.10;72.10;;;;;;4952367;29;20194;-70
2021/12/05 15:05:15;;;;;;;28.13;20.77;;;9.00;72.80;;;;;;4951758;29;20222;-70
2021/12/05 15:07:43;;;;;;;29.50;21.47;;;9.00;73.20;;;;;;4952120;29;20216;-70
2021/12/05 15:10:19;;;;;;;29.40;21.50;;;8.90;73.30;;;;;;4955135;28;20209;-70
2021/12/05 15:12:51;;;;;;;29.13;21.63;;;8.80;73.40;;;;;;4954727;29;20252;-70
2021/12/05 15:15:23;;;;;;;30.30;21.60;;;8.70;73.30;;;;;;4955069;28;20225;-70
2021/12/05 15:17:55;;;;;;;30.17;21.03;;;8.60;73.70;;;;;;4948535;29;20210;-70
2021/12/05 15:20:29;;;;;;;27.83;21.00;;;8.60;73.90;;;;;;4953752;29;20229;-70
2021/12/05 15:23:06;;;;;;;28.73;21.53;;;8.50;74.00;;;;;;4954134;29;20294;-70
2021/12/05 15:25:37;;;;;;;27.27;20.87;;;8.50;74.30;;;;;;4967801;28;20237;-70
2021/12/05 15:28:06;;;;;;;27.17;20.83;;;8.50;74.60;;;;;;4955244;28;20212;-70
2021/12/05 15:30:38;;;;;;;32.40;21.73;;;8.40;75.00;;;;;;4953188;29;20514;-70
2021/12/05 15:33:11;;;;;;;34.30;20.77;;;8.30;75.40;;;;;;4952068;29;20252;-70
2021/12/05 15:35:40;;;;;;;29.47;22.13;;;8.20;75.60;;;;;;4951442;29;20216;-70
2021/12/05 15:38:15;;;;;;;37.70;26.47;;;8.10;75.90;;;;;;4955197;28;20216;-70
2021/12/05 15:40:46;;;;;;;32.70;23.10;;;8.00;76.50;;;;;;4953464;29;20200;-70
2021/12/05 15:43:16;;;;;;;38.83;25.57;;;7.90;76.80;;;;;;4953269;29;20203;-70
2021/12/05 15:45:45;;;;;;;52.83;29.50;;;7.90;77.20;;;;;;4953778;29;20243;-70
2021/12/05 15:48:25;;;;;;;47.50;29.37;;;7.80;77.40;;;;;;4950539;28;20224;-70
2021/12/05 15:50:54;;;;;;;52.03;31.27;;;7.80;77.40;;;;;;4954444;28;20286;-70
2021/12/05 15:53:23;;;;;;;35.57;24.77;;;7.70;77.30;;;;;;4953323;29;20653;-70
2021/12/05 15:56:06;;;;;;;38.00;27.00;;;7.70;77.70;;;;;;4956055;28;20201;-70
2021/12/05 15:58:57;;;;;;;37.50;26.90;;;7.60;78.00;;;;;;4958244;29;20257;-70
2021/12/05 16:01:26;;;;;;;44.17;29.43;;;7.60;78.10;;;;;;4958192;28;20208;-70
2021/12/05 16:04:04;;;;;;;36.70;26.57;;;7.50;78.20;;;;;;4952895;29;20662;-70
2021/12/05 16:06:36;;;;;;;41.93;28.43;;;7.40;78.40;;;;;;4953841;29;20637;-70
2021/12/05 16:09:23;;;;;;;34.57;26.20;;;7.50;78.50;;;;;;4957759;28;20574;-70
2021/12/05 16:12:04;;;;;;;37.73;25.93;;;7.40;78.70;;;;;;4956667;29;20217;-70
2021/12/05 16:14:36;;;;;;;34.20;23.50;;;7.30;78.90;;;;;;4972223;28;20221;-70
2021/12/05 16:17:19;;;;;;;31.97;22.97;;;7.20;79.20;;;;;;4968991;28;20216;-70
2021/12/05 16:20:20;;;;;;;31.03;23.50;;;7.10;78.90;;;;;;4953190;29;20235;-70
2021/12/05 16:23:09;;;;;;;39.20;28.00;;;7.00;78.50;;;;;;4956062;29;20259;-70
2021/12/05 16:25:46;;;;;;;33.83;24.17;;;6.80;79.30;;;;;;4957256;29;20217;-70
2021/12/05 16:28:15;;;;;;;36.23;24.30;;;6.70;79.80;;;;;;4958132;28;20215;-70
2021/12/05 16:30:48;;;;;;;34.53;26.00;;;6.70;80.20;;;;;;4951477;29;20212;-70
2021/12/05 16:33:18;;;;;;;40.03;28.67;;;6.60;80.10;;;;;;4958038;28;20236;-70
2021/12/05 16:35:53;;;;;;;35.43;25.70;;;6.50;80.40;;;;;;4950002;29;20273;-70
2021/12/05 16:38:37;;;;;;;37.83;26.10;;;6.50;80.90;;;;;;4957087;29;20215;-70
2021/12/05 16:41:26;;;;;;;42.10;28.33;;;6.40;81.00;;;;;;4957720;28;20302;-70
2021/12/05 16:43:57;;;;;;;50.10;33.23;;;6.30;81.50;;;;;;4965977;28;20212;-70
2021/12/05 16:46:31;;;;;;;49.17;32.37;;;6.30;82.00;;;;;;4956467;28;20208;-70
2021/12/05 16:49:03;;;;;;;42.60;29.47;;;6.30;82.30;;;;;;4958147;28;20299;-70
2021/12/05 16:51:36;;;;;;;59.20;34.50;;;6.30;82.30;;;;;;4956757;29;20244;-70
2021/12/05 16:54:16;;;;;;;52.07;33.83;;;6.30;82.50;;;;;;4956840;29;20290;-70
2021/12/05 16:56:48;;;;;;;52.93;34.70;;;6.30;82.60;;;;;;4947189;29;20719;-70
2021/12/05 16:59:27;;;;;;;49.97;33.13;;;6.20;82.60;;;;;;4953418;29;20331;-70
2021/12/05 17:02:16;;;;;;;41.47;29.73;;;6.20;82.30;;;;;;4956426;29;20231;-70
2021/12/05 17:05:02;;;;;;;39.63;26.90;;;6.10;82.20;;;;;;4945412;29;20226;-70
2021/12/05 17:07:44;;;;;;;36.47;25.70;;;6.00;83.20;;;;;;4936764;29;20208;-70
2021/12/05 17:10:33;;;;;;;39.20;26.73;;;5.90;83.00;;;;;;4956684;29;20241;-70
2021/12/05 17:13:34;;;;;;;40.97;28.70;;;5.90;83.30;;;;;;4954083;29;20614;-70
2021/12/05 17:16:07;;;;;;;39.93;28.97;;;5.90;83.50;;;;;;4953415;28;20224;-70
2021/12/05 17:18:37;;;;;;;40.87;28.27;;;5.90;83.50;;;;;;4957465;28;20248;-70
2021/12/05 17:21:08;;;;;;;39.53;27.33;;;5.90;83.40;;;;;;4955530;29;20638;-70
2021/12/05 17:23:43;;;;;;;49.20;31.33;;;5.80;83.30;;;;;;4954243;29;20244;-70
2021/12/05 17:26:21;;;;;;;52.70;33.07;;;5.80;83.90;;;;;;4956607;29;20241;-70
2021/12/05 17:29:05;;;;;;;50.23;32.13;;;5.80;84.40;;;;;;4957003;28;20522;-70
2021/12/05 17:31:45;;;;;;;42.10;28.80;;;5.80;85.20;;;;;;4954515;29;20233;-70
2021/12/05 17:34:20;;;;;;;42.00;28.40;;;5.70;84.70;;;;;;4968703;28;20247;-70
2021/12/05 17:36:58;;;;;;;35.67;27.33;;;5.70;84.70;;;;;;4950714;29;20208;-70
2021/12/05 17:39:29;;;;;;;39.93;27.77;;;5.70;84.90;;;;;;4953100;29;20263;-70
2021/12/05 17:42:01;;;;;;;42.57;28.43;;;5.60;84.70;;;;;;4954454;29;20208;-70
2021/12/05 17:44:29;;;;;;;39.87;28.90;;;5.60;84.70;;;;;;4952037;29;20227;-70
2021/12/05 17:47:06;;;;;;;40.97;28.13;;;5.50;84.70;;;;;;4956241;29;20255;-70
2021/12/05 17:49:36;;;;;;;42.17;31.70;;;5.50;85.10;;;;;;4965573;28;20208;-70
2021/12/05 17:52:06;;;;;;;46.50;30.70;;;5.50;85.40;;;;;;4970251;28;20249;-70
2021/12/05 17:54:50;;;;;;;43.07;31.30;;;5.50;85.70;;;;;;4956696;28;20204;-69
2021/12/05 17:57:22;;;;;;;43.07;28.10;;;5.60;85.70;;;;;;4963626;28;20206;-70
2021/12/05 18:05:07;;;;;;;37.93;27.10;;;5.50;85.40;;;;;;4944046;29;20200;-69
2021/12/05 18:07:35;;;;;;;39.20;26.63;;;5.50;85.50;;;;;;4955283;29;20202;-69
2021/12/05 18:10:04;;;;;;;43.23;30.63;;;5.50;85.50;;;;;;4955246;29;20250;-69
2021/12/05 18:12:35;;;;;;;48.40;32.20;;;5.40;85.50;;;;;;4955708;28;20286;-69
2021/12/05 18:15:12;;;;;;;43.90;30.67;;;5.40;85.70;;;;;;4953079;29;20205;-69
2021/12/05 18:17:40;;;;;;;42.30;27.90;;;5.40;86.00;;;;;;4955627;28;20225;-69
2021/12/05 18:20:12;;;;;;;42.17;29.00;;;5.40;85.80;;;;;;4952285;29;20293;-69
2021/12/05 18:22:39;;;;;;;41.03;28.90;;;5.40;85.70;;;;;;4953163;29;20750;-69
2021/12/05 18:25:09;;;;;;;55.60;32.87;;;5.40;85.50;;;;;;4963900;28;20221;-69
2021/12/05 18:27:37;;;;;;;48.07;31.80;;;5.30;85.40;;;;;;4952108;29;20223;-69
2021/12/05 18:30:11;;;;;;;44.97;32.37;;;5.20;85.40;;;;;;4939184;29;20220;-70
2021/12/05 18:32:38;;;;;;;42.43;31.87;;;5.20;85.70;;;;;;4952167;28;20272;-69
2021/12/05 18:35:07;;;;;;;48.80;32.17;;;5.20;86.00;;;;;;4952213;28;20553;-69
2021/12/05 18:37:35;;;;;;;45.07;30.83;;;5.10;85.90;;;;;;4954726;28;20247;-69
2021/12/05 18:40:05;;;;;;;41.73;28.03;;;5.10;86.00;;;;;;4954976;29;20255;-69
2021/12/05 18:42:33;;;;;;;41.27;27.97;;;5.10;86.20;;;;;;4963571;28;20205;-69
2021/12/05 18:45:03;;;;;;;44.67;29.80;;;5.10;86.20;;;;;;4955120;28;20610;-70
2021/12/05 18:47:31;;;;;;;51.43;32.73;;;5.00;86.00;;;;;;4950923;28;20224;-70
2021/12/05 18:50:00;;;;;;;45.30;31.27;;;4.90;86.00;;;;;;4962110;28;20220;-70
2021/12/05 18:52:33;;;;;;;47.00;32.33;;;4.90;86.50;;;;;;4950196;29;20653;-70
2021/12/05 18:55:06;;;;;;;40.43;27.93;;;4.90;86.80;;;;;;4934776;29;20267;-70
2021/12/05 18:57:34;;;;;;;46.23;29.60;;;4.90;87.00;;;;;;4967530;28;20418;-70
2021/12/05 19:00:10;;;;;;;40.50;25.97;;;4.90;87.00;;;;;;4950505;29;20335;-70
2021/12/05 19:05:34;;;;;;;39.73;27.47;;;4.90;87.00;;;;;;4960027;28;20300;-70
2021/12/05 19:09:07;;;;;;;36.77;25.10;;;4.80;87.10;;;;;;4948753;29;20294;-70